• Join FlightAware (Why Join?)
  • Login
  • US Flag 
06:54AM EDT


 

Airport Tracker/Info


-or-


 

Live Flight TrackerFlight Track Log ✈ N960DL ✈ 09-May-2013 ✈ KATL - KSRQ

Flight Track Log - Related Links

Times and Time Zones

All times are in EDT time to prevent confusion due to time zone crossing. See the N960DL flight status page for this flight to view local times or setup timezone preferences in your user account.

Time Position Orientation Groundspeed Altitude Reporting Facility
EDT Latitude Longitude Course Direction KTS MPH feet Rate Location/Type
11:51AM 33.6333 -84.4833 199° South 182 209 2,400  Level Atlanta TRACON
11:52AM 33.6333 -84.5500 270° West 254 292 4,300 2,700 Climbing Atlanta TRACON
11:53AM 33.3717 -84.2896 194° South  Level FlightAware Approximate
11:53AM 33.6333 -84.6333 270° West 267 307 7,600  Level Atlanta TRACON
11:54AM 33.2535 -84.3241 194° South  Level FlightAware Approximate
11:55AM 33.1354 -84.3585 194° South  Level FlightAware Approximate
11:55AM 33.4567 -84.6761 191° South 308 354 10,000  Level Atlanta Center
11:56AM 33.0172 -84.3898 199° South  Level FlightAware Approximate
11:56AM 33.3567 -84.6258 157° South 364 419 12,000  Level Atlanta Center
11:57AM 33.2525 -84.5728 157° South 399 459 14,500 2,280 Climbing Atlanta Center
11:58AM 33.1544 -84.5250 158° South 418 481 16,600 2,100 Climbing Atlanta Center
11:59AM 33.0442 -84.4675 156° South 423 487 18,800 2,100 Climbing Atlanta Center
12:01PM 32.8106 -84.4219 171° South 431 496 22,900 1,920 Climbing Atlanta Center
12:02PM 32.6833 -84.4189 179° South 442 509 24,700 1,740 Climbing Atlanta Center
12:03PM 32.5558 -84.4158 179° South 448 516 26,400 1,560 Climbing Atlanta Center
12:04PM 32.4286 -84.4128 179° South 455 524 27,900 1,440 Climbing Atlanta Center
12:05PM 32.2992 -84.4100 179° South 455 524 29,300 1,500 Climbing Atlanta Center
12:06PM 32.1678 -84.4044 178° South 460 529 30,900 1,620 Climbing Atlanta Center
12:07PM 32.0425 -84.4014 179° South 460 529 32,600 1,020 Climbing Atlanta Center
12:08PM 31.9194 -84.4011 180° South 455 524 33,000 300 Climbing Atlanta Center
12:09PM 31.8717 -84.3994 178° South 456 525 33,000  Level Jacksonville Center
12:10PM 31.7464 -84.3975 179° South 449 517 33,000  Level Jacksonville Center
12:11PM 31.6231 -84.3931 178° South 449 517 33,000  Level Jacksonville Center
12:12PM 31.4981 -84.3911 179° South 449 517 33,000  Level Jacksonville Center
12:13PM 31.3747 -84.3914 180° South 449 517 33,000  Level Jacksonville Center
12:14PM 31.2494 -84.3869 178° South 449 517 33,000  Level Jacksonville Center
12:15PM 31.1242 -84.3828 178° South 449 517 33,000  Level Jacksonville Center
12:16PM 31.0011 -84.3783 178° South 449 517 33,000 120 Level Jacksonville Center
12:17PM 30.8758 -84.3764 179° South 449 517 33,300 660 Climbing Jacksonville Center
12:18PM 30.7528 -84.3719 178° South 449 517 34,400 840 Climbing Jacksonville Center
12:19PM 30.6294 -84.3725 180° South 449 517 35,000 240 Climbing Jacksonville Center
12:20PM 30.5192 -84.3492 170° South 444 511 35,000 -60 Level Jacksonville Center
12:21PM 30.4094 -84.2750 150° Southeast 433 498 34,900  Descending Jacksonville Center
12:22PM 30.2994 -84.2014 150° Southeast 438 504 35,000  Climbing Jacksonville Center
12:23PM 30.1814 -84.1228 150° Southeast 443 510 35,000  Level Jacksonville Center
12:24PM 30.0692 -84.0519 151° Southeast 454 522 35,000  Level Jacksonville Center
12:25PM 29.9614 -83.9786 149° Southeast 454 522 35,000  Level Jacksonville Center
12:26PM 29.8492 -83.9103 152° Southeast 454 522 35,000 -300 Level Jacksonville Center
12:27PM 29.7411 -83.8397 150° Southeast 454 522 34,400 -900 Descending Jacksonville Center
12:28PM 29.6289 -83.7669 151° Southeast 454 522 33,300 -720 Descending Jacksonville Center
12:29PM 29.5186 -83.6969 151° Southeast 454 522 33,000 -180 Descending Jacksonville Center
12:30PM 29.4083 -83.6269 151° Southeast 454 522 33,000 -180 Level Jacksonville Center
12:31PM 29.2961 -83.5569 151° Southeast 454 522 32,700 -900 Descending Jacksonville Center
12:32PM 29.1836 -83.4967 155° Southeast 448 516 31,300 -1,320 Descending Jacksonville Center
12:33PM 29.0711 -83.4367 155° Southeast 443 510 30,100 -2,040 Descending Jacksonville Center
12:34PM 28.9567 -83.3744 155° Southeast 443 510 27,300 -2,280 Descending Jacksonville Center
12:35PM 28.8419 -83.3192 157° South 453 521 25,600 -1,800 Descending Jacksonville Center
12:36PM 28.7253 -83.2736 161° South 453 521 23,700 -1,320 Descending Jacksonville Center
12:37PM 28.6106 -83.2283 161° South 442 509 23,000 -900 Descending Jacksonville Center
12:38PM 28.5003 -83.1831 160° South 437 503 21,900 -2,280 Descending Jacksonville Center
12:39PM 28.3500 -83.1167 159° South 433 498 17,800 -3,240 Descending Tampa TRACON
12:40PM 28.2333 -83.0833 166° South 423 487 14,500 -3,000 Descending Tampa TRACON
12:41PM 28.1333 -83.0333 156° South 402 463 11,800 -1,800 Descending Tampa TRACON
12:42PM 28.0167 -83.0167 173° South 372 428 11,000 -420 Descending Tampa TRACON
12:43PM 27.9167 -83.0000 172° South 365 420 11,000  Level Tampa TRACON
12:44PM 27.8167 -83.0000 180° South 365 420 11,000 -60 Level Tampa TRACON
12:45PM 27.7333 -82.9500 152° Southeast 353 406 10,900 -540 Descending Tampa TRACON
12:46PM 27.6833 -82.8667 124° Southeast 315 362 10,000 -1,200 Descending Tampa TRACON
12:47PM 27.6333 -82.8000 130° Southeast 301 346 8,500 -1,560 Descending Tampa TRACON
12:48PM 27.5833 -82.7167 124° Southeast 293 337 6,900 -1,500 Descending Tampa TRACON
12:49PM 27.5500 -82.6333 114° Southeast 285 328 5,500 -1,440 Descending Tampa TRACON
12:50PM 27.5000 -82.5667 130° Southeast 276 318 4,000 -1,260 Descending Tampa TRACON
12:51PM 27.4667 -82.5000 119° Southeast 250 288 3,000 -720 Descending Tampa TRACON
12:52PM 27.4167 -82.4500 138° Southeast 233 268 2,600 -420 Descending Tampa TRACON